sensor_id;sensor_type;location;lat;lon;timestamp;P1;durP1;ratioP1;P2;durP2;ratioP2
74658;SDS011;63186;51.204;6.536;2023-07-13T00:00:27;5.50;;;1.52;;
74658;SDS011;63186;51.204;6.536;2023-07-13T00:02:52;3.25;;;1.30;;
74658;SDS011;63186;51.204;6.536;2023-07-13T00:05:21;3.85;;;1.00;;
74658;SDS011;63186;51.204;6.536;2023-07-13T00:07:48;1.58;;;0.82;;
74658;SDS011;63186;51.204;6.536;2023-07-13T00:10:14;5.78;;;1.20;;
74658;SDS011;63186;51.204;6.536;2023-07-13T00:12:40;5.05;;;1.25;;
74658;SDS011;63186;51.204;6.536;2023-07-13T00:15:07;4.57;;;1.57;;
74658;SDS011;63186;51.204;6.536;2023-07-13T00:17:36;2.33;;;1.10;;
74658;SDS011;63186;51.204;6.536;2023-07-13T00:20:03;2.03;;;1.00;;
74658;SDS011;63186;51.204;6.536;2023-07-13T00:22:29;3.40;;;1.30;;
74658;SDS011;63186;51.204;6.536;2023-07-13T00:24:55;4.63;;;1.20;;
74658;SDS011;63186;51.204;6.536;2023-07-13T00:27:23;3.97;;;1.70;;
74658;SDS011;63186;51.204;6.536;2023-07-13T00:29:51;4.03;;;1.40;;
74658;SDS011;63186;51.204;6.536;2023-07-13T00:32:17;4.10;;;1.50;;
74658;SDS011;63186;51.204;6.536;2023-07-13T00:34:43;3.50;;;1.10;;
74658;SDS011;63186;51.204;6.536;2023-07-13T00:37:08;4.67;;;1.40;;
74658;SDS011;63186;51.204;6.536;2023-07-13T00:39:34;3.80;;;1.57;;
74658;SDS011;63186;51.204;6.536;2023-07-13T00:42:00;3.85;;;1.42;;
74658;SDS011;63186;51.204;6.536;2023-07-13T00:44:26;5.25;;;1.50;;
74658;SDS011;63186;51.204;6.536;2023-07-13T00:46:52;4.80;;;1.63;;
74658;SDS011;63186;51.204;6.536;2023-07-13T00:49:20;4.75;;;1.60;;
74658;SDS011;63186;51.204;6.536;2023-07-13T00:54:21;6.13;;;1.60;;
74658;SDS011;63186;51.204;6.536;2023-07-13T00:56:56;5.25;;;2.28;;
74658;SDS011;63186;51.204;6.536;2023-07-13T00:59:23;4.10;;;2.08;;
74658;SDS011;63186;51.204;6.536;2023-07-13T01:01:49;5.60;;;1.45;;
74658;SDS011;63186;51.204;6.536;2023-07-13T01:04:15;5.38;;;1.38;;
74658;SDS011;63186;51.204;6.536;2023-07-13T01:06:41;5.80;;;1.33;;
74658;SDS011;63186;51.204;6.536;2023-07-13T01:09:09;4.15;;;1.48;;
74658;SDS011;63186;51.204;6.536;2023-07-13T01:11:35;3.08;;;1.10;;
74658;SDS011;63186;51.204;6.536;2023-07-13T01:14:01;4.53;;;1.55;;
74658;SDS011;63186;51.204;6.536;2023-07-13T01:16:28;3.38;;;1.55;;
74658;SDS011;63186;51.204;6.536;2023-07-13T01:18:56;3.50;;;1.10;;
74658;SDS011;63186;51.204;6.536;2023-07-13T01:21:26;5.90;;;1.50;;
74658;SDS011;63186;51.204;6.536;2023-07-13T01:23:52;4.53;;;1.65;;
74658;SDS011;63186;51.204;6.536;2023-07-13T01:26:18;3.67;;;1.80;;
74658;SDS011;63186;51.204;6.536;2023-07-13T01:28:43;4.20;;;1.67;;
74658;SDS011;63186;51.204;6.536;2023-07-13T01:31:09;2.30;;;1.43;;
74658;SDS011;63186;51.204;6.536;2023-07-13T01:33:36;3.80;;;1.35;;
74658;SDS011;63186;51.204;6.536;2023-07-13T01:36:04;3.95;;;1.20;;
74658;SDS011;63186;51.204;6.536;2023-07-13T01:38:30;5.22;;;1.50;;
74658;SDS011;63186;51.204;6.536;2023-07-13T01:40:56;5.05;;;1.15;;
74658;SDS011;63186;51.204;6.536;2023-07-13T01:43:21;3.67;;;1.43;;
74658;SDS011;63186;51.204;6.536;2023-07-13T01:45:46;4.00;;;1.33;;
74658;SDS011;63186;51.204;6.536;2023-07-13T01:48:12;3.05;;;1.52;;
74658;SDS011;63186;51.204;6.536;2023-07-13T01:50:38;4.70;;;1.45;;
74658;SDS011;63186;51.204;6.536;2023-07-13T01:53:04;4.68;;;1.60;;
74658;SDS011;63186;51.204;6.536;2023-07-13T01:55:29;2.22;;;1.23;;
74658;SDS011;63186;51.204;6.536;2023-07-13T01:57:55;3.65;;;1.10;;
74658;SDS011;63186;51.204;6.536;2023-07-13T02:00:20;2.78;;;1.27;;
74658;SDS011;63186;51.204;6.536;2023-07-13T02:02:46;3.65;;;1.50;;
74658;SDS011;63186;51.204;6.536;2023-07-13T02:05:12;3.58;;;1.70;;
74658;SDS011;63186;51.204;6.536;2023-07-13T02:07:38;3.35;;;1.60;;
74658;SDS011;63186;51.204;6.536;2023-07-13T02:10:04;5.07;;;1.50;;
74658;SDS011;63186;51.204;6.536;2023-07-13T02:12:31;2.88;;;1.30;;
74658;SDS011;63186;51.204;6.536;2023-07-13T02:14:56;4.67;;;1.37;;
74658;SDS011;63186;51.204;6.536;2023-07-13T02:17:21;4.10;;;1.20;;
74658;SDS011;63186;51.204;6.536;2023-07-13T02:19:46;4.23;;;1.83;;
74658;SDS011;63186;51.204;6.536;2023-07-13T02:22:12;8.53;;;2.00;;
74658;SDS011;63186;51.204;6.536;2023-07-13T02:24:37;3.37;;;1.50;;
74658;SDS011;63186;51.204;6.536;2023-07-13T02:27:03;4.10;;;1.50;;
74658;SDS011;63186;51.204;6.536;2023-07-13T02:29:29;3.90;;;1.48;;
74658;SDS011;63186;51.204;6.536;2023-07-13T02:31:54;2.75;;;1.70;;
74658;SDS011;63186;51.204;6.536;2023-07-13T02:34:19;2.27;;;1.27;;
74658;SDS011;63186;51.204;6.536;2023-07-13T02:36:45;2.93;;;1.37;;
74658;SDS011;63186;51.204;6.536;2023-07-13T02:39:10;3.92;;;1.30;;
74658;SDS011;63186;51.204;6.536;2023-07-13T02:41:36;3.72;;;1.40;;
74658;SDS011;63186;51.204;6.536;2023-07-13T02:44:02;3.07;;;1.23;;
74658;SDS011;63186;51.204;6.536;2023-07-13T02:46:32;1.75;;;0.98;;
74658;SDS011;63186;51.204;6.536;2023-07-13T02:48:59;3.28;;;1.38;;
74658;SDS011;63186;51.204;6.536;2023-07-13T02:51:24;2.55;;;1.13;;
74658;SDS011;63186;51.204;6.536;2023-07-13T02:53:50;2.85;;;1.17;;
74658;SDS011;63186;51.204;6.536;2023-07-13T02:56:15;5.77;;;1.43;;
74658;SDS011;63186;51.204;6.536;2023-07-13T02:58:41;3.73;;;1.70;;
74658;SDS011;63186;51.204;6.536;2023-07-13T03:01:10;4.15;;;1.38;;
74658;SDS011;63186;51.204;6.536;2023-07-13T03:03:36;5.38;;;1.30;;
74658;SDS011;63186;51.204;6.536;2023-07-13T03:06:03;4.80;;;1.50;;
74658;SDS011;63186;51.204;6.536;2023-07-13T03:08:31;4.38;;;1.40;;
74658;SDS011;63186;51.204;6.536;2023-07-13T03:11:00;3.45;;;1.27;;
74658;SDS011;63186;51.204;6.536;2023-07-13T03:13:26;4.80;;;1.40;;
74658;SDS011;63186;51.204;6.536;2023-07-13T03:15:52;7.07;;;1.53;;
74658;SDS011;63186;51.204;6.536;2023-07-13T03:18:17;3.63;;;1.20;;
74658;SDS011;63186;51.204;6.536;2023-07-13T03:20:42;2.53;;;1.35;;
74658;SDS011;63186;51.204;6.536;2023-07-13T03:23:07;5.00;;;2.10;;
74658;SDS011;63186;51.204;6.536;2023-07-13T03:25:33;6.60;;;1.40;;
74658;SDS011;63186;51.204;6.536;2023-07-13T03:27:58;5.60;;;1.80;;
74658;SDS011;63186;51.204;6.536;2023-07-13T03:30:23;3.07;;;1.40;;
74658;SDS011;63186;51.204;6.536;2023-07-13T03:32:49;3.30;;;1.35;;
74658;SDS011;63186;51.204;6.536;2023-07-13T03:35:14;5.10;;;1.43;;
74658;SDS011;63186;51.204;6.536;2023-07-13T03:37:39;4.77;;;1.60;;
74658;SDS011;63186;51.204;6.536;2023-07-13T03:40:07;2.35;;;1.30;;
74658;SDS011;63186;51.204;6.536;2023-07-13T03:42:34;3.47;;;1.60;;
74658;SDS011;63186;51.204;6.536;2023-07-13T03:44:59;2.78;;;1.23;;
74658;SDS011;63186;51.204;6.536;2023-07-13T03:47:25;4.43;;;1.90;;
74658;SDS011;63186;51.204;6.536;2023-07-13T03:49:50;3.40;;;1.40;;
74658;SDS011;63186;51.204;6.536;2023-07-13T03:52:15;5.03;;;1.57;;
74658;SDS011;63186;51.204;6.536;2023-07-13T03:54:41;5.27;;;1.70;;
74658;SDS011;63186;51.204;6.536;2023-07-13T03:57:06;2.63;;;1.47;;
74658;SDS011;63186;51.204;6.536;2023-07-13T03:59:31;3.65;;;1.50;;
74658;SDS011;63186;51.204;6.536;2023-07-13T04:01:57;3.90;;;1.57;;
74658;SDS011;63186;51.204;6.536;2023-07-13T04:04:22;3.30;;;1.30;;
74658;SDS011;63186;51.204;6.536;2023-07-13T04:06:47;4.67;;;1.53;;
74658;SDS011;63186;51.204;6.536;2023-07-13T04:09:12;4.93;;;1.57;;
74658;SDS011;63186;51.204;6.536;2023-07-13T04:11:38;4.07;;;1.10;;
74658;SDS011;63186;51.204;6.536;2023-07-13T04:14:03;5.50;;;1.40;;
74658;SDS011;63186;51.204;6.536;2023-07-13T04:16:29;5.40;;;1.60;;
74658;SDS011;63186;51.204;6.536;2023-07-13T04:18:54;5.40;;;1.83;;
74658;SDS011;63186;51.204;6.536;2023-07-13T04:21:24;3.20;;;1.83;;
74658;SDS011;63186;51.204;6.536;2023-07-13T04:23:51;4.40;;;1.77;;
74658;SDS011;63186;51.204;6.536;2023-07-13T04:26:16;3.33;;;1.40;;
74658;SDS011;63186;51.204;6.536;2023-07-13T04:28:41;2.47;;;1.08;;
74658;SDS011;63186;51.204;6.536;2023-07-13T04:31:07;3.33;;;1.58;;
74658;SDS011;63186;51.204;6.536;2023-07-13T04:33:32;7.63;;;2.25;;
74658;SDS011;63186;51.204;6.536;2023-07-13T04:35:58;5.45;;;1.33;;
74658;SDS011;63186;51.204;6.536;2023-07-13T04:38:25;6.20;;;1.70;;
74658;SDS011;63186;51.204;6.536;2023-07-13T04:40:58;4.95;;;1.60;;
74658;SDS011;63186;51.204;6.536;2023-07-13T04:43:26;7.05;;;2.22;;
74658;SDS011;63186;51.204;6.536;2023-07-13T04:45:52;3.67;;;1.42;;
74658;SDS011;63186;51.204;6.536;2023-07-13T04:48:17;5.50;;;1.40;;
74658;SDS011;63186;51.204;6.536;2023-07-13T04:50:43;4.30;;;1.35;;
74658;SDS011;63186;51.204;6.536;2023-07-13T04:53:08;5.32;;;1.88;;
74658;SDS011;63186;51.204;6.536;2023-07-13T04:55:34;6.63;;;1.95;;
74658;SDS011;63186;51.204;6.536;2023-07-13T04:57:59;5.72;;;1.63;;
74658;SDS011;63186;51.204;6.536;2023-07-13T05:00:25;5.78;;;1.52;;
74658;SDS011;63186;51.204;6.536;2023-07-13T05:02:51;8.02;;;2.08;;
74658;SDS011;63186;51.204;6.536;2023-07-13T05:05:17;4.55;;;1.42;;
74658;SDS011;63186;51.204;6.536;2023-07-13T05:07:42;5.87;;;1.80;;
74658;SDS011;63186;51.204;6.536;2023-07-13T05:10:08;5.68;;;1.45;;
74658;SDS011;63186;51.204;6.536;2023-07-13T05:12:34;5.43;;;1.45;;
74658;SDS011;63186;51.204;6.536;2023-07-13T05:14:59;6.23;;;1.50;;
74658;SDS011;63186;51.204;6.536;2023-07-13T05:17:24;6.30;;;1.90;;
74658;SDS011;63186;51.204;6.536;2023-07-13T05:19:49;4.20;;;1.50;;
74658;SDS011;63186;51.204;6.536;2023-07-13T05:22:15;7.67;;;1.50;;
74658;SDS011;63186;51.204;6.536;2023-07-13T05:24:40;6.67;;;1.60;;
74658;SDS011;63186;51.204;6.536;2023-07-13T05:27:05;4.03;;;1.53;;
74658;SDS011;63186;51.204;6.536;2023-07-13T05:29:31;4.45;;;1.52;;
74658;SDS011;63186;51.204;6.536;2023-07-13T05:31:56;5.53;;;1.50;;
74658;SDS011;63186;51.204;6.536;2023-07-13T05:34:21;6.35;;;1.90;;
74658;SDS011;63186;51.204;6.536;2023-07-13T05:36:47;5.85;;;1.83;;
74658;SDS011;63186;51.204;6.536;2023-07-13T05:39:13;7.90;;;1.75;;
74658;SDS011;63186;51.204;6.536;2023-07-13T05:41:39;3.22;;;1.50;;
74658;SDS011;63186;51.204;6.536;2023-07-13T05:44:04;6.90;;;1.23;;
74658;SDS011;63186;51.204;6.536;2023-07-13T05:46:29;4.13;;;1.70;;
74658;SDS011;63186;51.204;6.536;2023-07-13T05:48:55;4.00;;;1.63;;
74658;SDS011;63186;51.204;6.536;2023-07-13T05:51:21;5.82;;;1.60;;
74658;SDS011;63186;51.204;6.536;2023-07-13T05:53:46;6.83;;;1.77;;
74658;SDS011;63186;51.204;6.536;2023-07-13T05:56:11;5.07;;;1.73;;
74658;SDS011;63186;51.204;6.536;2023-07-13T05:58:37;11.27;;;2.33;;
74658;SDS011;63186;51.204;6.536;2023-07-13T06:01:07;5.90;;;1.77;;
74658;SDS011;63186;51.204;6.536;2023-07-13T06:03:35;6.68;;;2.30;;
74658;SDS011;63186;51.204;6.536;2023-07-13T06:06:03;5.40;;;2.20;;
74658;SDS011;63186;51.204;6.536;2023-07-13T06:08:29;7.22;;;2.10;;
74658;SDS011;63186;51.204;6.536;2023-07-13T06:10:55;6.70;;;2.03;;
74658;SDS011;63186;51.204;6.536;2023-07-13T06:13:26;5.53;;;2.08;;
74658;SDS011;63186;51.204;6.536;2023-07-13T06:15:51;6.43;;;2.07;;
74658;SDS011;63186;51.204;6.536;2023-07-13T06:18:17;7.40;;;2.50;;
74658;SDS011;63186;51.204;6.536;2023-07-13T06:20:42;5.93;;;2.20;;
74658;SDS011;63186;51.204;6.536;2023-07-13T06:23:07;8.97;;;2.87;;
74658;SDS011;63186;51.204;6.536;2023-07-13T06:25:32;8.00;;;3.20;;
74658;SDS011;63186;51.204;6.536;2023-07-13T06:27:58;4.77;;;2.00;;
74658;SDS011;63186;51.204;6.536;2023-07-13T06:30:23;4.20;;;1.80;;
74658;SDS011;63186;51.204;6.536;2023-07-13T06:32:49;4.93;;;2.00;;
74658;SDS011;63186;51.204;6.536;2023-07-13T06:35:14;5.78;;;2.42;;
74658;SDS011;63186;51.204;6.536;2023-07-13T06:37:40;4.85;;;2.33;;
74658;SDS011;63186;51.204;6.536;2023-07-13T06:40:05;5.10;;;2.40;;
74658;SDS011;63186;51.204;6.536;2023-07-13T06:42:31;5.25;;;2.28;;
74658;SDS011;63186;51.204;6.536;2023-07-13T06:44:56;8.18;;;2.67;;
74658;SDS011;63186;51.204;6.536;2023-07-13T06:47:21;7.23;;;2.77;;
74658;SDS011;63186;51.204;6.536;2023-07-13T06:49:47;10.57;;;2.97;;
74658;SDS011;63186;51.204;6.536;2023-07-13T06:52:12;5.67;;;2.27;;
74658;SDS011;63186;51.204;6.536;2023-07-13T06:54:37;4.00;;;2.17;;
74658;SDS011;63186;51.204;6.536;2023-07-13T06:57:03;5.33;;;2.47;;
74658;SDS011;63186;51.204;6.536;2023-07-13T06:59:28;8.23;;;2.45;;
74658;SDS011;63186;51.204;6.536;2023-07-13T07:01:53;8.03;;;2.43;;
74658;SDS011;63186;51.204;6.536;2023-07-13T07:04:19;8.37;;;2.73;;
74658;SDS011;63186;51.204;6.536;2023-07-13T07:06:44;6.37;;;2.47;;
74658;SDS011;63186;51.204;6.536;2023-07-13T07:09:10;6.93;;;2.40;;
74658;SDS011;63186;51.204;6.536;2023-07-13T07:11:35;7.87;;;2.20;;
74658;SDS011;63186;51.204;6.536;2023-07-13T07:14:01;9.80;;;2.40;;
74658;SDS011;63186;51.204;6.536;2023-07-13T07:16:26;6.33;;;2.00;;
74658;SDS011;63186;51.204;6.536;2023-07-13T07:18:51;9.38;;;2.45;;
74658;SDS011;63186;51.204;6.536;2023-07-13T07:21:17;8.83;;;2.17;;
74658;SDS011;63186;51.204;6.536;2023-07-13T07:23:42;8.50;;;2.67;;
74658;SDS011;63186;51.204;6.536;2023-07-13T07:26:09;9.68;;;2.67;;
74658;SDS011;63186;51.204;6.536;2023-07-13T07:28:35;5.43;;;2.10;;
74658;SDS011;63186;51.204;6.536;2023-07-13T07:31:00;5.53;;;1.80;;
74658;SDS011;63186;51.204;6.536;2023-07-13T07:33:26;8.73;;;2.17;;
74658;SDS011;63186;51.204;6.536;2023-07-13T07:35:51;6.93;;;2.50;;
74658;SDS011;63186;51.204;6.536;2023-07-13T07:38:17;7.67;;;2.37;;
74658;SDS011;63186;51.204;6.536;2023-07-13T07:40:42;9.68;;;2.60;;
74658;SDS011;63186;51.204;6.536;2023-07-13T07:43:08;5.03;;;1.80;;
74658;SDS011;63186;51.204;6.536;2023-07-13T07:45:35;6.75;;;2.22;;
74658;SDS011;63186;51.204;6.536;2023-07-13T07:48:02;5.97;;;1.95;;
74658;SDS011;63186;51.204;6.536;2023-07-13T07:50:28;6.20;;;2.20;;
74658;SDS011;63186;51.204;6.536;2023-07-13T07:52:54;5.93;;;2.20;;
74658;SDS011;63186;51.204;6.536;2023-07-13T07:55:23;5.32;;;2.30;;
74658;SDS011;63186;51.204;6.536;2023-07-13T07:57:50;6.93;;;2.50;;
74658;SDS011;63186;51.204;6.536;2023-07-13T08:00:15;4.80;;;1.87;;
74658;SDS011;63186;51.204;6.536;2023-07-13T08:02:41;6.05;;;2.45;;
74658;SDS011;63186;51.204;6.536;2023-07-13T08:05:07;7.65;;;2.63;;
74658;SDS011;63186;51.204;6.536;2023-07-13T08:07:34;9.90;;;2.55;;
74658;SDS011;63186;51.204;6.536;2023-07-13T08:10:00;8.38;;;1.90;;
74658;SDS011;63186;51.204;6.536;2023-07-13T08:12:26;4.60;;;2.00;;
74658;SDS011;63186;51.204;6.536;2023-07-13T08:14:51;7.75;;;2.25;;
74658;SDS011;63186;51.204;6.536;2023-07-13T08:17:22;6.55;;;2.70;;
74658;SDS011;63186;51.204;6.536;2023-07-13T08:19:48;7.32;;;2.50;;
74658;SDS011;63186;51.204;6.536;2023-07-13T08:22:14;6.40;;;2.30;;
74658;SDS011;63186;51.204;6.536;2023-07-13T08:24:39;8.40;;;2.50;;
74658;SDS011;63186;51.204;6.536;2023-07-13T08:27:04;6.37;;;2.47;;
74658;SDS011;63186;51.204;6.536;2023-07-13T08:29:30;7.65;;;2.10;;
74658;SDS011;63186;51.204;6.536;2023-07-13T08:31:57;8.43;;;2.42;;
74658;SDS011;63186;51.204;6.536;2023-07-13T08:34:22;6.97;;;2.13;;
74658;SDS011;63186;51.204;6.536;2023-07-13T08:36:48;5.43;;;2.33;;
74658;SDS011;63186;51.204;6.536;2023-07-13T08:39:13;6.77;;;2.23;;
74658;SDS011;63186;51.204;6.536;2023-07-13T08:41:38;11.10;;;2.97;;
74658;SDS011;63186;51.204;6.536;2023-07-13T08:44:04;6.72;;;3.42;;
74658;SDS011;63186;51.204;6.536;2023-07-13T08:46:44;8.05;;;3.30;;
74658;SDS011;63186;51.204;6.536;2023-07-13T08:49:13;5.50;;;2.10;;
74658;SDS011;63186;51.204;6.536;2023-07-13T08:51:48;5.97;;;2.13;;
74658;SDS011;63186;51.204;6.536;2023-07-13T08:56:55;7.15;;;2.15;;
74658;SDS011;63186;51.204;6.536;2023-07-13T08:59:26;5.10;;;1.90;;
74658;SDS011;63186;51.204;6.536;2023-07-13T09:01:58;3.38;;;1.63;;
74658;SDS011;63186;51.204;6.536;2023-07-13T09:04:53;8.60;;;2.20;;
74658;SDS011;63186;51.204;6.536;2023-07-13T09:07:26;7.78;;;2.03;;
74658;SDS011;63186;51.204;6.536;2023-07-13T09:10:14;7.18;;;2.38;;
74658;SDS011;63186;51.204;6.536;2023-07-13T09:15:37;8.55;;;2.60;;
74658;SDS011;63186;51.204;6.536;2023-07-13T09:18:19;6.22;;;1.73;;
74658;SDS011;63186;51.204;6.536;2023-07-13T09:20:50;4.68;;;1.73;;
74658;SDS011;63186;51.204;6.536;2023-07-13T09:23:20;3.80;;;1.27;;
74658;SDS011;63186;51.204;6.536;2023-07-13T09:25:47;5.93;;;1.80;;
74658;SDS011;63186;51.204;6.536;2023-07-13T09:28:24;6.35;;;2.00;;
74658;SDS011;63186;51.204;6.536;2023-07-13T09:30:56;4.05;;;1.80;;
74658;SDS011;63186;51.204;6.536;2023-07-13T09:33:27;7.25;;;1.75;;
74658;SDS011;63186;51.204;6.536;2023-07-13T09:35:55;6.10;;;1.98;;
74658;SDS011;63186;51.204;6.536;2023-07-13T09:38:23;4.10;;;1.63;;
74658;SDS011;63186;51.204;6.536;2023-07-13T09:41:04;3.97;;;1.50;;
74658;SDS011;63186;51.204;6.536;2023-07-13T09:46:31;4.28;;;2.03;;
74658;SDS011;63186;51.204;6.536;2023-07-13T09:48:56;5.23;;;1.60;;
74658;SDS011;63186;51.204;6.536;2023-07-13T09:51:21;5.53;;;1.90;;
74658;SDS011;63186;51.204;6.536;2023-07-13T09:53:47;5.15;;;1.90;;
74658;SDS011;63186;51.204;6.536;2023-07-13T09:56:23;5.43;;;2.22;;
74658;SDS011;63186;51.204;6.536;2023-07-13T09:58:53;4.25;;;1.60;;
74658;SDS011;63186;51.204;6.536;2023-07-13T10:01:30;6.55;;;1.75;;
74658;SDS011;63186;51.204;6.536;2023-07-13T10:03:58;3.60;;;1.33;;
74658;SDS011;63186;51.204;6.536;2023-07-13T10:06:24;8.43;;;1.75;;
74658;SDS011;63186;51.204;6.536;2023-07-13T10:08:51;4.00;;;1.50;;
74658;SDS011;63186;51.204;6.536;2023-07-13T10:11:18;4.53;;;1.70;;
74658;SDS011;63186;51.204;6.536;2023-07-13T10:14:15;7.35;;;2.20;;
74658;SDS011;63186;51.204;6.536;2023-07-13T10:16:44;3.78;;;1.50;;
74658;SDS011;63186;51.204;6.536;2023-07-13T10:21:54;7.88;;;2.10;;
74658;SDS011;63186;51.204;6.536;2023-07-13T10:24:25;5.35;;;1.60;;
74658;SDS011;63186;51.204;6.536;2023-07-13T10:32:35;5.00;;;1.70;;
74658;SDS011;63186;51.204;6.536;2023-07-13T10:35:00;3.95;;;1.70;;
74658;SDS011;63186;51.204;6.536;2023-07-13T10:37:29;3.55;;;1.50;;
74658;SDS011;63186;51.204;6.536;2023-07-13T10:39:58;4.95;;;1.83;;
74658;SDS011;63186;51.204;6.536;2023-07-13T10:42:44;3.83;;;1.50;;
74658;SDS011;63186;51.204;6.536;2023-07-13T10:45:20;6.85;;;1.55;;
74658;SDS011;63186;51.204;6.536;2023-07-13T10:47:48;4.80;;;1.83;;
74658;SDS011;63186;51.204;6.536;2023-07-13T10:50:17;4.20;;;1.45;;
74658;SDS011;63186;51.204;6.536;2023-07-13T10:57:59;5.85;;;1.45;;
74658;SDS011;63186;51.204;6.536;2023-07-13T11:00:42;5.18;;;1.50;;
74658;SDS011;63186;51.204;6.536;2023-07-13T11:03:13;3.45;;;1.30;;
74658;SDS011;63186;51.204;6.536;2023-07-13T11:05:40;2.80;;;1.20;;
74658;SDS011;63186;51.204;6.536;2023-07-13T11:08:16;6.15;;;1.60;;
74658;SDS011;63186;51.204;6.536;2023-07-13T11:10:50;3.08;;;1.50;;
74658;SDS011;63186;51.204;6.536;2023-07-13T11:16:26;5.18;;;1.50;;
74658;SDS011;63186;51.204;6.536;2023-07-13T11:27:46;3.70;;;1.58;;
74658;SDS011;63186;51.204;6.536;2023-07-13T11:30:32;3.65;;;1.40;;
74658;SDS011;63186;51.204;6.536;2023-07-13T11:33:02;3.45;;;1.15;;
74658;SDS011;63186;51.204;6.536;2023-07-13T11:35:44;5.15;;;1.40;;
74658;SDS011;63186;51.204;6.536;2023-07-13T11:38:20;4.75;;;1.33;;
74658;SDS011;63186;51.204;6.536;2023-07-13T11:40:48;5.05;;;1.33;;
74658;SDS011;63186;51.204;6.536;2023-07-13T11:43:15;3.17;;;1.30;;
74658;SDS011;63186;51.204;6.536;2023-07-13T11:45:42;4.57;;;1.10;;
74658;SDS011;63186;51.204;6.536;2023-07-13T11:50:51;2.50;;;1.30;;
74658;SDS011;63186;51.204;6.536;2023-07-13T11:53:22;4.68;;;1.33;;
74658;SDS011;63186;51.204;6.536;2023-07-13T11:55:52;5.38;;;1.30;;
74658;SDS011;63186;51.204;6.536;2023-07-13T11:58:19;2.55;;;1.30;;
74658;SDS011;63186;51.204;6.536;2023-07-13T12:00:49;3.60;;;1.50;;
74658;SDS011;63186;51.204;6.536;2023-07-13T12:03:17;3.25;;;1.38;;
74658;SDS011;63186;51.204;6.536;2023-07-13T12:06:05;4.25;;;1.40;;
74658;SDS011;63186;51.204;6.536;2023-07-13T12:08:45;3.90;;;1.33;;
74658;SDS011;63186;51.204;6.536;2023-07-13T12:11:19;3.40;;;1.15;;
74658;SDS011;63186;51.204;6.536;2023-07-13T12:13:46;2.50;;;1.30;;
74658;SDS011;63186;51.204;6.536;2023-07-13T12:16:32;4.88;;;1.15;;
74658;SDS011;63186;51.204;6.536;2023-07-13T12:19:01;4.47;;;1.63;;
74658;SDS011;63186;51.204;6.536;2023-07-13T12:21:37;2.55;;;1.40;;
74658;SDS011;63186;51.204;6.536;2023-07-13T12:24:04;4.30;;;1.23;;
74658;SDS011;63186;51.204;6.536;2023-07-13T12:26:30;2.92;;;1.33;;
74658;SDS011;63186;51.204;6.536;2023-07-13T12:28:58;2.95;;;1.38;;
74658;SDS011;63186;51.204;6.536;2023-07-13T12:31:30;2.92;;;1.40;;
74658;SDS011;63186;51.204;6.536;2023-07-13T12:33:57;4.00;;;1.17;;
74658;SDS011;63186;51.204;6.536;2023-07-13T12:36:23;3.65;;;1.23;;
74658;SDS011;63186;51.204;6.536;2023-07-13T12:38:48;3.15;;;1.30;;
74658;SDS011;63186;51.204;6.536;2023-07-13T12:41:14;3.85;;;1.20;;
74658;SDS011;63186;51.204;6.536;2023-07-13T12:43:40;4.00;;;1.55;;
74658;SDS011;63186;51.204;6.536;2023-07-13T12:46:15;4.15;;;1.25;;
74658;SDS011;63186;51.204;6.536;2023-07-13T12:48:43;3.10;;;1.13;;
74658;SDS011;63186;51.204;6.536;2023-07-13T12:51:11;3.97;;;1.15;;
74658;SDS011;63186;51.204;6.536;2023-07-13T12:56:08;3.63;;;1.08;;
74658;SDS011;63186;51.204;6.536;2023-07-13T12:58:44;4.00;;;1.27;;
74658;SDS011;63186;51.204;6.536;2023-07-13T13:01:14;2.90;;;1.27;;
74658;SDS011;63186;51.204;6.536;2023-07-13T13:03:40;4.53;;;2.08;;
74658;SDS011;63186;51.204;6.536;2023-07-13T13:08:43;5.32;;;1.20;;
74658;SDS011;63186;51.204;6.536;2023-07-13T13:11:11;3.97;;;0.90;;
74658;SDS011;63186;51.204;6.536;2023-07-13T13:13:36;5.67;;;1.30;;
74658;SDS011;63186;51.204;6.536;2023-07-13T13:16:02;4.23;;;1.20;;
74658;SDS011;63186;51.204;6.536;2023-07-13T13:18:48;2.90;;;1.10;;
74658;SDS011;63186;51.204;6.536;2023-07-13T13:21:15;2.67;;;1.20;;
74658;SDS011;63186;51.204;6.536;2023-07-13T13:23:41;4.05;;;1.17;;
74658;SDS011;63186;51.204;6.536;2023-07-13T13:26:12;3.95;;;1.30;;
74658;SDS011;63186;51.204;6.536;2023-07-13T13:28:40;4.28;;;1.27;;
74658;SDS011;63186;51.204;6.536;2023-07-13T13:31:07;3.10;;;1.38;;
74658;SDS011;63186;51.204;6.536;2023-07-13T13:33:37;3.47;;;1.20;;
74658;SDS011;63186;51.204;6.536;2023-07-13T13:36:04;4.32;;;1.52;;
74658;SDS011;63186;51.204;6.536;2023-07-13T13:38:29;2.58;;;1.00;;
74658;SDS011;63186;51.204;6.536;2023-07-13T13:40:55;3.97;;;1.20;;
74658;SDS011;63186;51.204;6.536;2023-07-13T13:43:24;2.67;;;1.23;;
74658;SDS011;63186;51.204;6.536;2023-07-13T13:45:51;3.25;;;1.30;;
74658;SDS011;63186;51.204;6.536;2023-07-13T13:48:19;4.15;;;1.27;;
74658;SDS011;63186;51.204;6.536;2023-07-13T13:50:56;3.50;;;1.20;;
74658;SDS011;63186;51.204;6.536;2023-07-13T13:53:22;2.13;;;1.20;;
74658;SDS011;63186;51.204;6.536;2023-07-13T13:55:51;3.40;;;1.17;;
74658;SDS011;63186;51.204;6.536;2023-07-13T13:58:17;1.98;;;1.10;;
74658;SDS011;63186;51.204;6.536;2023-07-13T14:00:46;4.00;;;1.70;;
74658;SDS011;63186;51.204;6.536;2023-07-13T14:03:21;2.60;;;1.40;;
74658;SDS011;63186;51.204;6.536;2023-07-13T14:05:47;4.72;;;1.42;;
74658;SDS011;63186;51.204;6.536;2023-07-13T14:08:14;3.92;;;1.30;;
74658;SDS011;63186;51.204;6.536;2023-07-13T14:10:41;5.20;;;1.63;;
74658;SDS011;63186;51.204;6.536;2023-07-13T14:13:13;2.08;;;1.10;;
74658;SDS011;63186;51.204;6.536;2023-07-13T14:15:43;5.60;;;1.48;;
74658;SDS011;63186;51.204;6.536;2023-07-13T14:18:08;3.83;;;1.40;;
74658;SDS011;63186;51.204;6.536;2023-07-13T14:20:33;1.77;;;1.00;;
74658;SDS011;63186;51.204;6.536;2023-07-13T14:22:59;3.67;;;1.40;;
74658;SDS011;63186;51.204;6.536;2023-07-13T14:25:24;2.43;;;1.20;;
74658;SDS011;63186;51.204;6.536;2023-07-13T14:27:51;2.90;;;1.30;;
74658;SDS011;63186;51.204;6.536;2023-07-13T14:30:22;3.03;;;1.30;;
74658;SDS011;63186;51.204;6.536;2023-07-13T14:32:47;3.70;;;1.33;;
74658;SDS011;63186;51.204;6.536;2023-07-13T14:35:14;6.10;;;1.58;;
74658;SDS011;63186;51.204;6.536;2023-07-13T14:37:40;1.30;;;0.90;;
74658;SDS011;63186;51.204;6.536;2023-07-13T14:40:14;1.52;;;1.00;;
74658;SDS011;63186;51.204;6.536;2023-07-13T14:42:40;3.78;;;1.42;;
74658;SDS011;63186;51.204;6.536;2023-07-13T14:45:12;2.50;;;1.40;;
74658;SDS011;63186;51.204;6.536;2023-07-13T14:47:38;4.15;;;1.50;;
74658;SDS011;63186;51.204;6.536;2023-07-13T14:50:04;3.00;;;1.50;;
74658;SDS011;63186;51.204;6.536;2023-07-13T14:52:30;7.50;;;1.75;;
74658;SDS011;63186;51.204;6.536;2023-07-13T14:54:55;5.38;;;1.73;;
74658;SDS011;63186;51.204;6.536;2023-07-13T14:57:20;3.10;;;1.30;;
74658;SDS011;63186;51.204;6.536;2023-07-13T14:59:46;4.97;;;1.60;;
74658;SDS011;63186;51.204;6.536;2023-07-13T15:02:16;3.47;;;1.17;;
74658;SDS011;63186;51.204;6.536;2023-07-13T15:04:47;2.78;;;1.38;;
74658;SDS011;63186;51.204;6.536;2023-07-13T15:07:12;2.83;;;1.20;;
74658;SDS011;63186;51.204;6.536;2023-07-13T15:09:40;2.58;;;1.10;;
74658;SDS011;63186;51.204;6.536;2023-07-13T15:12:06;6.40;;;1.75;;
74658;SDS011;63186;51.204;6.536;2023-07-13T15:14:32;4.03;;;1.45;;
74658;SDS011;63186;51.204;6.536;2023-07-13T15:16:57;4.73;;;2.30;;
74658;SDS011;63186;51.204;6.536;2023-07-13T15:19:23;5.25;;;1.70;;
74658;SDS011;63186;51.204;6.536;2023-07-13T15:21:50;3.55;;;1.77;;
74658;SDS011;63186;51.204;6.536;2023-07-13T15:24:17;5.68;;;2.03;;
74658;SDS011;63186;51.204;6.536;2023-07-13T15:26:42;4.70;;;1.83;;
74658;SDS011;63186;51.204;6.536;2023-07-13T15:29:10;6.63;;;2.20;;
74658;SDS011;63186;51.204;6.536;2023-07-13T15:31:36;4.35;;;1.80;;
74658;SDS011;63186;51.204;6.536;2023-07-13T15:34:04;3.78;;;1.40;;